createdAt,value
2018-01-22T00:02:25.719Z,10.80
2018-01-22T00:04:52.124Z,12.43
2018-01-22T00:07:18.546Z,11.90
2018-01-22T00:09:44.938Z,12.40
2018-01-22T00:12:11.366Z,11.70
2018-01-22T00:14:37.773Z,11.05
2018-01-22T00:17:04.195Z,10.82
2018-01-22T00:19:30.606Z,11.55
2018-01-22T00:21:57.741Z,12.10
2018-01-22T00:24:24.938Z,11.75
2018-01-22T00:26:51.410Z,11.40
2018-01-22T00:29:17.850Z,11.60
2018-01-22T00:31:44.337Z,12.05
2018-01-22T00:34:10.752Z,10.95
2018-01-22T00:36:37.182Z,11.75
2018-01-22T00:39:04.411Z,11.98
2018-01-22T00:41:30.798Z,11.80
2018-01-22T00:43:57.214Z,11.23
2018-01-22T00:46:23.641Z,11.40
2018-01-22T00:48:50.101Z,10.50
2018-01-22T00:51:16.534Z,11.60
2018-01-22T00:53:42.938Z,11.30
2018-01-22T00:56:10.089Z,10.68
2018-01-22T00:58:37.224Z,11.43
2018-01-22T01:01:03.638Z,10.88
2018-01-22T01:03:30.779Z,10.57
2018-01-22T01:05:57.174Z,11.57
2018-01-22T01:08:23.634Z,10.77
2018-01-22T01:10:50.004Z,11.77
2018-01-22T01:13:16.430Z,11.55
2018-01-22T01:15:42.842Z,11.18
2018-01-22T01:18:09.257Z,11.05
2018-01-22T01:20:35.694Z,11.40
2018-01-22T01:23:02.088Z,11.18
2018-01-22T01:25:29.238Z,11.80
2018-01-22T01:27:56.401Z,11.00
2018-01-22T01:30:23.566Z,10.60
2018-01-22T01:32:49.997Z,11.60
2018-01-22T01:35:16.404Z,11.40
2018-01-22T01:37:43.582Z,11.65
2018-01-22T01:40:10.707Z,11.68
2018-01-22T01:42:37.145Z,11.90
2018-01-22T01:45:04.317Z,11.30
2018-01-22T01:47:30.696Z,11.02
2018-01-22T01:49:57.105Z,11.85
2018-01-22T01:52:23.542Z,11.90
2018-01-22T01:54:49.966Z,11.10
2018-01-22T01:57:16.365Z,12.03
2018-01-22T01:59:42.793Z,12.55
2018-01-22T02:02:09.224Z,12.70
2018-01-22T02:04:35.635Z,12.35
2018-01-22T02:07:02.035Z,12.17
2018-01-22T02:09:28.454Z,12.52
2018-01-22T02:11:55.604Z,13.60
2018-01-22T02:14:22.757Z,13.60
2018-01-22T02:16:49.877Z,14.20
2018-01-22T02:19:16.311Z,13.57
2018-01-22T02:21:42.779Z,14.20
2018-01-22T02:24:09.916Z,14.80
2018-01-22T02:26:36.327Z,15.40
2018-01-22T02:29:02.713Z,16.60
2018-01-22T02:31:29.128Z,17.05
2018-01-22T02:33:56.246Z,18.33
2018-01-22T02:36:22.687Z,18.10
2018-01-22T02:38:49.101Z,18.93
2018-01-22T02:41:15.569Z,19.73
2018-01-22T02:43:41.985Z,19.65
2018-01-22T02:46:08.374Z,20.45
2018-01-22T02:48:34.792Z,20.37
2018-01-22T02:51:01.948Z,20.60
2018-01-22T02:53:28.341Z,21.98
2018-01-22T02:55:54.746Z,20.23
2018-01-22T02:58:21.146Z,19.92
2018-01-22T03:00:47.531Z,20.00
2018-01-22T03:03:13.946Z,20.40
2018-01-22T03:05:40.329Z,17.98
2018-01-22T03:08:07.483Z,18.23
2018-01-22T03:10:34.646Z,18.90
2018-01-22T03:13:01.766Z,19.70
2018-01-22T03:15:28.177Z,20.37
2018-01-22T03:17:54.574Z,19.83
2018-01-22T03:20:21.030Z,19.10
2018-01-22T03:22:47.403Z,16.55
2018-01-22T03:25:13.820Z,16.10
2018-01-22T03:27:40.234Z,17.75
2018-01-22T03:30:06.627Z,19.90
2018-01-22T03:32:33.813Z,20.88
2018-01-22T03:35:00.218Z,20.58
2018-01-22T03:37:27.426Z,19.10
2018-01-22T03:39:53.827Z,21.50
2018-01-22T03:42:20.238Z,21.45
2018-01-22T03:44:47.389Z,21.10
2018-01-22T03:47:14.518Z,21.85
2018-01-22T03:49:40.938Z,18.95
2018-01-22T03:52:07.334Z,18.35
2018-01-22T03:54:33.757Z,18.05
2018-01-22T03:57:00.149Z,17.52
2018-01-22T03:59:26.562Z,18.23
2018-01-22T04:01:52.931Z,18.95
2018-01-22T04:04:19.361Z,18.62
2018-01-22T04:06:46.573Z,18.12
2018-01-22T04:09:12.943Z,19.73
2018-01-22T04:11:39.393Z,19.23
2018-01-22T04:14:06.572Z,19.50
2018-01-22T04:16:50.030Z,19.87
2018-01-22T04:19:30.027Z,19.70
2018-01-22T04:22:00.649Z,19.50
2018-01-22T04:24:32.314Z,21.30
2018-01-22T04:27:03.090Z,23.05
2018-01-22T04:29:47.181Z,25.05
2018-01-22T04:32:25.187Z,28.40
2018-01-22T04:34:54.467Z,28.43
2018-01-22T04:37:23.585Z,26.70
2018-01-22T04:39:53.164Z,23.45
2018-01-22T04:42:21.974Z,21.70
2018-01-22T04:44:50.804Z,20.88
2018-01-22T04:47:19.956Z,18.50
2018-01-22T04:49:46.438Z,17.65
2018-01-22T04:52:13.594Z,17.05
2018-01-22T04:54:40.746Z,15.45
2018-01-22T04:57:07.872Z,16.00
2018-01-22T04:59:34.274Z,15.60
2018-01-22T05:02:00.673Z,16.58
2018-01-22T05:04:27.881Z,16.83
2018-01-22T05:06:54.295Z,15.80
2018-01-22T05:09:20.709Z,16.20
2018-01-22T05:11:47.164Z,16.70
2018-01-22T05:14:15.211Z,19.10
2018-01-22T05:16:41.656Z,16.83
2018-01-22T05:19:08.073Z,17.30
2018-01-22T05:21:34.518Z,20.62
2018-01-22T05:24:00.969Z,16.25
2018-01-22T05:26:27.345Z,17.30
2018-01-22T05:28:53.798Z,17.35
2018-01-22T05:31:20.926Z,17.07
2018-01-22T05:33:47.346Z,18.50
2018-01-22T05:36:13.762Z,16.95
2018-01-22T05:38:40.184Z,17.30
2018-01-22T05:41:06.601Z,16.48
2018-01-22T05:43:33.007Z,16.73
2018-01-22T05:45:59.412Z,17.50
2018-01-22T05:48:25.826Z,17.55
2018-01-22T05:50:52.234Z,19.15
2018-01-22T05:53:19.450Z,18.80
2018-01-22T05:55:46.010Z,18.45
2018-01-22T05:58:13.191Z,19.58
2018-01-22T06:00:39.744Z,19.90
2018-01-22T06:03:06.181Z,18.30
2018-01-22T06:05:32.577Z,16.37
2018-01-22T06:07:59.747Z,17.08
2018-01-22T06:10:26.170Z,17.50
2018-01-22T06:12:53.309Z,16.30
2018-01-22T06:15:20.485Z,15.77
2018-01-22T06:17:46.910Z,16.83
2018-01-22T06:20:13.327Z,13.75
2018-01-22T06:22:40.509Z,14.80
2018-01-22T06:25:06.918Z,15.30
2018-01-22T06:27:34.051Z,16.20
2018-01-22T06:30:01.194Z,14.65
2018-01-22T06:32:27.597Z,14.73
2018-01-22T06:34:53.973Z,13.30
2018-01-22T06:37:20.415Z,13.10
2018-01-22T06:39:47.534Z,14.10
2018-01-22T06:42:13.941Z,14.07
2018-01-22T06:44:40.381Z,13.50
2018-01-22T06:47:06.820Z,13.73
2018-01-22T06:49:33.229Z,13.30
2018-01-22T06:51:59.752Z,13.98
2018-01-22T06:54:26.906Z,13.90
2018-01-22T06:56:54.083Z,15.25
2018-01-22T06:59:20.507Z,13.23
2018-01-22T07:01:46.920Z,14.07
2018-01-22T07:04:14.086Z,13.27
2018-01-22T07:06:40.475Z,13.60
2018-01-22T07:09:06.914Z,13.85
2018-01-22T07:11:33.336Z,12.88
2018-01-22T07:13:59.777Z,13.52
2018-01-22T07:16:26.168Z,12.37
2018-01-22T07:18:52.578Z,12.43
2018-01-22T07:21:19.713Z,13.13
2018-01-22T07:23:46.120Z,12.20
2018-01-22T07:26:12.520Z,11.30
2018-01-22T07:28:38.890Z,11.70
2018-01-22T07:31:05.315Z,9.52
2018-01-22T07:33:31.738Z,10.20
2018-01-22T07:35:58.154Z,8.20
2018-01-22T07:38:24.601Z,7.97
2018-01-22T07:40:51.046Z,7.85
2018-01-22T07:43:17.489Z,7.50
2018-01-22T07:45:43.893Z,6.85
2018-01-22T07:48:10.314Z,6.72
2018-01-22T07:50:36.686Z,5.93
2018-01-22T07:53:03.107Z,5.50
2018-01-22T07:55:29.494Z,5.40
2018-01-22T07:57:55.881Z,6.03
2018-01-22T08:00:22.343Z,6.00
2018-01-22T08:02:48.720Z,5.55
2018-01-22T08:05:15.152Z,5.10
2018-01-22T08:07:42.293Z,5.00
2018-01-22T08:10:09.397Z,4.87
2018-01-22T08:12:35.806Z,5.18
2018-01-22T08:15:02.226Z,4.53
2018-01-22T08:17:28.645Z,4.37
2018-01-22T08:19:55.794Z,3.50
2018-01-22T08:22:22.942Z,3.00
2018-01-22T08:24:50.102Z,3.20
2018-01-22T08:27:17.238Z,3.40
2018-01-22T08:29:43.644Z,2.87
2018-01-22T08:32:10.013Z,3.60
2018-01-22T08:34:37.142Z,3.78
2018-01-22T08:37:03.542Z,4.22
2018-01-22T08:39:29.941Z,8.15
2018-01-22T08:41:57.112Z,4.40
2018-01-22T08:44:23.510Z,3.90
2018-01-22T08:46:49.949Z,4.00
2018-01-22T08:49:17.117Z,4.85
2018-01-22T08:51:44.257Z,4.68
2018-01-22T08:54:11.414Z,6.95
2018-01-22T08:56:38.581Z,4.70
2018-01-22T08:59:05.002Z,4.43
2018-01-22T09:01:32.171Z,4.10
2018-01-22T09:03:59.329Z,4.50
2018-01-22T09:06:25.754Z,4.55
2018-01-22T09:08:52.126Z,4.07
2018-01-22T09:11:18.529Z,4.10
2018-01-22T09:13:44.908Z,4.10
2018-01-22T09:16:11.340Z,4.32
2018-01-22T09:18:37.716Z,4.40
2018-01-22T09:21:04.865Z,4.45
2018-01-22T09:23:32.003Z,4.23
2018-01-22T09:25:59.183Z,4.40
2018-01-22T09:28:25.597Z,3.90
2018-01-22T09:30:52.734Z,4.83
2018-01-22T09:33:19.166Z,4.20
2018-01-22T09:35:45.569Z,4.55
2018-01-22T09:38:11.990Z,4.20
2018-01-22T09:40:38.410Z,4.80
2018-01-22T09:43:04.787Z,3.87
2018-01-22T11:01:06.589Z,9.13
2018-01-22T11:03:33.018Z,5.90
2018-01-22T11:05:59.413Z,4.07
2018-01-22T11:08:25.847Z,3.47
2018-01-22T11:10:52.288Z,7.55
2018-01-22T11:13:18.680Z,6.50
2018-01-22T11:15:51.254Z,5.72
2018-01-22T11:18:17.671Z,5.30
2018-01-22T11:20:44.078Z,5.15
2018-01-22T11:23:10.457Z,5.60
2018-01-22T11:25:37.607Z,5.05
2018-01-22T11:28:04.107Z,5.00
2018-01-22T11:30:30.505Z,4.40
2018-01-22T11:32:57.675Z,5.40
2018-01-22T11:35:24.064Z,9.75
2018-01-22T11:37:50.472Z,5.55
2018-01-22T11:40:16.866Z,5.00
2018-01-22T11:42:43.282Z,4.93
2018-01-22T11:45:10.412Z,6.57
2018-01-22T11:47:36.838Z,7.18
2018-01-22T11:50:03.286Z,9.10
2018-01-22T11:52:29.676Z,8.07
2018-01-22T11:54:56.085Z,7.65
2018-01-22T11:57:23.200Z,8.55
2018-01-22T11:59:49.606Z,8.45
2018-01-22T12:02:15.994Z,9.88
2018-01-22T12:04:43.131Z,10.18
2018-01-22T12:07:09.534Z,10.77
2018-01-22T12:09:35.934Z,9.48
2018-01-22T12:12:02.364Z,8.45
2018-01-22T12:14:28.738Z,11.55
2018-01-22T12:16:55.151Z,10.43
2018-01-22T12:19:21.569Z,12.55
2018-01-22T12:21:47.966Z,11.45
2018-01-22T12:24:14.394Z,12.50
2018-01-22T12:26:40.783Z,11.48
2018-01-22T12:29:07.934Z,12.85
2018-01-22T12:31:34.312Z,7.80
2018-01-22T12:34:00.713Z,11.60
2018-01-22T12:36:27.150Z,11.90
2018-01-22T12:38:53.554Z,10.25
2018-01-22T12:41:19.925Z,10.52
2018-01-22T12:43:46.360Z,12.75
2018-01-22T12:46:12.790Z,12.50
2018-01-22T12:48:39.257Z,11.90
2018-01-22T12:51:05.691Z,14.45
2018-01-22T12:53:32.110Z,13.62
2018-01-22T12:55:58.494Z,12.48
2018-01-22T12:58:24.879Z,14.23
2018-01-22T13:00:51.298Z,12.55
2018-01-22T13:03:17.701Z,8.88
2018-01-22T13:05:44.122Z,30.20
2018-01-22T13:08:10.524Z,12.98
2018-01-22T13:10:37.695Z,9.65
2018-01-22T13:13:04.825Z,11.88
2018-01-22T13:15:31.237Z,14.23
2018-01-22T13:17:57.618Z,7.60
2018-01-22T13:20:24.794Z,7.97
2018-01-22T13:22:51.166Z,7.80
2018-01-22T13:25:17.579Z,10.90
2018-01-22T13:27:43.988Z,12.55
2018-01-22T13:30:10.450Z,10.23
2018-01-22T13:32:36.859Z,11.30
2018-01-22T13:35:03.309Z,11.75
2018-01-22T13:37:29.746Z,12.50
2018-01-22T13:40:02.186Z,12.20
2018-01-22T13:42:29.322Z,17.00
2018-01-22T13:44:55.713Z,18.95
2018-01-22T13:47:22.114Z,13.02
2018-01-22T13:49:49.282Z,9.32
2018-01-22T13:52:15.685Z,8.40
2018-01-22T13:54:42.831Z,8.68
2018-01-22T13:57:09.245Z,10.60
2018-01-22T13:59:35.660Z,8.35
2018-01-22T14:02:02.089Z,6.57
2018-01-22T14:04:28.501Z,4.97
2018-01-22T14:06:54.880Z,3.80
2018-01-22T14:09:21.293Z,2.40
2018-01-22T14:11:47.678Z,1.95
2018-01-22T14:14:14.849Z,1.70
2018-01-22T14:16:41.249Z,1.45
2018-01-22T14:19:07.634Z,1.58
2018-01-22T14:21:34.062Z,1.12
2018-01-22T14:24:00.437Z,0.98
2018-01-22T14:26:26.828Z,0.80
2018-01-22T14:28:53.210Z,1.00
2018-01-22T14:31:19.631Z,0.80
2018-01-22T14:33:46.039Z,0.70
2018-01-22T14:36:12.471Z,0.90
2018-01-22T14:38:38.878Z,0.82
2018-01-22T14:41:07.391Z,0.93
2018-01-22T14:43:33.794Z,0.60
2018-01-22T14:46:00.930Z,0.60
2018-01-22T14:48:28.087Z,0.90
2018-01-22T14:50:55.198Z,0.80
2018-01-22T14:53:21.624Z,0.90
2018-01-22T14:55:48.035Z,1.00
2018-01-22T14:58:14.530Z,0.80
2018-01-22T15:00:40.958Z,0.75
2018-01-22T15:03:07.331Z,0.60
2018-01-22T15:05:33.740Z,0.60
2018-01-22T15:08:00.864Z,0.60
2018-01-22T15:10:27.297Z,0.50
2018-01-22T15:12:53.692Z,0.80
2018-01-22T15:15:20.074Z,0.73
2018-01-22T15:17:46.525Z,0.70
2018-01-22T15:20:13.774Z,0.75
2018-01-22T15:22:40.213Z,0.73
2018-01-22T15:25:07.374Z,0.88
2018-01-22T15:27:34.527Z,1.30
2018-01-22T15:30:01.637Z,0.90
2018-01-22T15:32:28.099Z,1.10
2018-01-22T15:34:54.478Z,1.42
2018-01-22T15:37:20.889Z,1.35
2018-01-22T15:39:47.294Z,1.25
2018-01-22T15:42:13.695Z,1.75
2018-01-22T15:44:40.110Z,2.10
2018-01-22T15:47:06.518Z,1.60
2018-01-22T15:49:33.657Z,1.85
2018-01-22T15:52:00.791Z,2.45
2018-01-22T15:54:27.228Z,2.83
